createdAt,value
2023-03-22T00:01:14.568Z,3.67
2023-03-22T00:03:42.678Z,3.20
2023-03-22T00:06:09.852Z,2.87
2023-03-22T00:08:36.930Z,2.93
2023-03-22T00:11:04.922Z,3.70
2023-03-22T00:13:35.024Z,2.90
2023-03-22T00:16:03.034Z,3.10
2023-03-22T00:18:30.566Z,3.03
2023-03-22T00:20:59.441Z,3.90
2023-03-22T00:23:27.803Z,3.85
2023-03-22T00:25:55.336Z,5.53
2023-03-22T00:28:22.662Z,6.53
2023-03-22T00:30:58.719Z,9.60
2023-03-22T00:33:27.960Z,11.10
2023-03-22T00:35:58.838Z,8.40
2023-03-22T00:38:41.203Z,8.40
2023-03-22T00:41:13.728Z,6.60
2023-03-22T00:43:41.204Z,5.00
2023-03-22T00:46:08.793Z,5.50
2023-03-22T00:48:36.205Z,6.77
2023-03-22T00:51:03.542Z,7.70
2023-03-22T00:53:33.179Z,9.73
2023-03-22T00:56:00.452Z,8.57
2023-03-22T00:58:32.221Z,7.93
2023-03-22T01:00:59.058Z,8.60
2023-03-22T01:03:27.264Z,6.40
2023-03-22T01:05:55.977Z,7.43
2023-03-22T01:08:24.546Z,6.30
2023-03-22T01:10:52.075Z,5.57
2023-03-22T01:13:19.035Z,6.70
2023-03-22T01:15:48.050Z,7.40
2023-03-22T01:20:43.861Z,8.13
2023-03-22T01:23:10.930Z,9.40
2023-03-22T01:25:37.825Z,8.87
2023-03-22T03:08:12.851Z,5.30
2023-03-22T03:10:42.356Z,6.83
2023-03-22T03:13:16.786Z,6.50
2023-03-22T03:15:48.871Z,6.23
2023-03-22T03:18:40.848Z,6.43
2023-03-22T03:21:07.659Z,9.97
2023-03-22T03:23:53.279Z,8.27
2023-03-22T03:26:44.329Z,5.37
2023-03-22T03:29:29.592Z,6.37
2023-03-22T06:18:09.362Z,4.67
2023-03-22T06:20:41.642Z,10.43
2023-03-22T06:23:15.068Z,6.00
2023-03-22T06:28:12.676Z,10.93
2023-03-22T06:30:47.366Z,17.80
2023-03-22T06:33:19.945Z,28.30
2023-03-22T06:35:53.036Z,39.87
2023-03-22T06:38:29.048Z,41.37
2023-03-22T06:40:56.307Z,45.30
2023-03-22T06:43:23.145Z,31.23
2023-03-22T06:45:57.470Z,27.80
2023-03-22T06:48:36.868Z,28.40
2023-03-22T06:51:07.069Z,8.83
2023-03-22T06:53:35.930Z,10.02
2023-03-22T06:56:04.282Z,8.77
2023-03-22T06:58:38.532Z,8.17
2023-03-22T07:01:05.756Z,6.23
2023-03-22T07:03:34.131Z,6.35
2023-03-22T07:06:08.784Z,7.13
2023-03-22T07:08:39.540Z,5.73
2023-03-22T07:11:08.104Z,5.30
2023-03-22T07:13:35.692Z,5.37
2023-03-22T07:16:10.216Z,5.17
2023-03-22T07:18:45.041Z,5.53
2023-03-22T07:21:12.265Z,5.57
2023-03-22T07:23:43.542Z,5.70
2023-03-22T07:26:14.563Z,5.80
2023-03-22T07:28:44.898Z,6.00
2023-03-22T07:31:14.361Z,6.43
2023-03-22T07:33:52.382Z,6.27
2023-03-22T07:36:24.173Z,6.53
2023-03-22T07:38:52.407Z,6.37
2023-03-22T07:41:40.435Z,8.80
2023-03-22T07:44:18.225Z,6.90
2023-03-22T08:58:20.429Z,12.13
2023-03-22T09:00:56.819Z,12.13
2023-03-22T09:03:47.281Z,11.70
2023-03-22T09:06:14.923Z,10.67
2023-03-22T09:08:52.404Z,10.17
2023-03-22T09:11:22.519Z,9.27
2023-03-22T09:13:51.242Z,10.10
2023-03-22T09:18:47.191Z,8.27
2023-03-22T09:21:22.040Z,8.80
2023-03-22T09:23:53.302Z,7.43
2023-03-22T09:26:27.257Z,5.97
2023-03-22T09:28:56.201Z,5.43
2023-03-22T09:31:26.002Z,6.23
2023-03-22T09:34:06.549Z,5.53
2023-03-22T09:36:35.310Z,4.60
2023-03-22T09:39:07.478Z,4.13
2023-03-22T09:41:41.300Z,3.50
2023-03-22T09:44:16.371Z,3.93
2023-03-22T10:03:44.258Z,4.93
2023-03-22T10:06:37.456Z,4.53
2023-03-22T10:09:19.700Z,4.30
2023-03-22T10:11:54.231Z,5.30
2023-03-22T10:14:30.832Z,7.20
2023-03-22T10:17:00.708Z,6.40
2023-03-22T10:19:40.403Z,5.29
2023-03-22T10:22:15.854Z,3.57
2023-03-22T10:24:47.054Z,3.10
2023-03-22T10:27:22.849Z,1.47
2023-03-22T10:29:55.985Z,1.40
2023-03-22T10:32:45.239Z,1.07
2023-03-22T11:12:29.558Z,2.77
2023-03-22T11:14:56.605Z,3.70
2023-03-22T11:17:26.121Z,3.17
2023-03-22T11:20:07.799Z,3.63
2023-03-22T11:22:49.652Z,3.77
2023-03-22T11:25:28.438Z,6.30
2023-03-22T11:28:17.080Z,12.23
2023-03-22T11:31:18.360Z,12.93
2023-03-22T11:34:15.826Z,16.63
2023-03-22T12:03:27.431Z,6.20
2023-03-22T12:05:55.246Z,5.43
2023-03-22T12:08:46.443Z,5.17
2023-03-22T12:11:41.253Z,5.00
2023-03-22T12:14:25.148Z,4.15
2023-03-22T12:17:00.182Z,4.67
2023-03-22T12:19:58.762Z,4.68
2023-03-22T12:22:33.206Z,5.38
2023-03-22T12:25:01.720Z,6.38
2023-03-22T12:27:37.646Z,4.88
2023-03-22T12:30:04.651Z,4.30
2023-03-22T12:32:36.980Z,4.60
2023-03-22T12:35:16.662Z,4.32
2023-03-22T12:37:48.461Z,4.75
2023-03-22T12:40:23.058Z,4.35
2023-03-22T12:43:00.143Z,3.75
2023-03-22T12:45:29.618Z,3.72
2023-03-22T12:48:18.254Z,3.42
2023-03-22T12:50:52.367Z,3.28
2023-03-22T12:53:21.359Z,3.20
2023-03-22T12:55:49.533Z,3.33
2023-03-22T12:58:22.451Z,4.43
2023-03-22T13:00:58.379Z,3.17
2023-03-22T13:03:29.370Z,4.43
2023-03-22T13:06:05.834Z,4.30
2023-03-22T13:09:04.610Z,3.53
2023-03-22T13:11:31.710Z,3.65
2023-03-22T13:13:58.506Z,4.10
2023-03-22T13:16:53.516Z,4.47
2023-03-22T13:19:36.338Z,2.85
2023-03-22T13:22:21.188Z,2.88
2023-03-22T13:25:17.328Z,2.40
2023-03-22T13:28:05.352Z,2.10
2023-03-22T13:30:49.265Z,1.50
2023-03-22T13:33:30.242Z,1.80
2023-03-22T13:36:05.937Z,1.88
2023-03-22T13:38:38.048Z,1.38
2023-03-22T13:41:07.953Z,4.18
2023-03-22T13:43:50.455Z,22.02
2023-03-22T13:46:20.879Z,6.57
2023-03-22T13:48:48.463Z,7.20
2023-03-22T13:51:22.144Z,5.00
2023-03-22T13:54:07.514Z,3.67
2023-03-22T13:56:52.515Z,3.75
2023-03-22T13:59:30.043Z,3.70
2023-03-22T14:02:15.760Z,3.85
2023-03-22T14:04:56.188Z,4.30
2023-03-22T14:07:27.215Z,4.53
2023-03-22T14:10:02.304Z,4.93
2023-03-22T14:12:45.577Z,5.20
2023-03-22T14:15:17.808Z,5.60
2023-03-22T14:17:56.407Z,5.22
2023-03-22T14:20:29.709Z,19.55
2023-03-22T14:53:47.432Z,6.40
2023-03-22T14:56:19.001Z,6.20
2023-03-22T14:58:48.562Z,5.93
2023-03-22T15:01:26.104Z,6.55
2023-03-22T15:03:58.095Z,6.63
2023-03-22T15:06:27.335Z,7.53
2023-03-22T15:11:22.144Z,6.68
2023-03-22T15:13:52.180Z,11.73
2023-03-22T15:16:22.366Z,26.98
2023-03-22T15:18:52.490Z,11.05
2023-03-22T15:21:19.728Z,10.02
2023-03-22T15:23:55.040Z,7.43
2023-03-22T15:26:28.123Z,8.43
2023-03-22T15:28:57.104Z,7.50
2023-03-22T15:31:33.541Z,7.50
2023-03-22T15:34:03.808Z,6.72
2023-03-22T15:36:33.404Z,7.30
2023-03-22T15:39:06.746Z,5.97
2023-03-22T15:41:44.047Z,7.00
2023-03-22T15:44:26.676Z,6.55
2023-03-22T15:47:14.328Z,6.40
2023-03-22T15:49:45.601Z,6.28
2023-03-22T15:52:12.505Z,7.85
2023-03-22T15:54:56.556Z,6.75
2023-03-22T15:57:37.097Z,6.47
2023-03-22T16:00:19.460Z,5.30
2023-03-22T16:02:52.584Z,6.10
2023-03-22T16:05:21.381Z,5.18
2023-03-22T16:07:48.365Z,5.78
2023-03-22T16:10:20.775Z,6.75
2023-03-22T16:12:48.994Z,7.78
2023-03-22T16:15:19.866Z,8.45
2023-03-22T16:17:47.151Z,8.15
2023-03-22T16:20:15.889Z,8.05
2023-03-22T16:22:45.143Z,8.27
2023-03-22T16:25:19.356Z,8.05
2023-03-22T16:27:46.378Z,8.18
2023-03-22T16:30:14.774Z,8.00
2023-03-22T16:32:43.446Z,7.47
2023-03-22T16:35:16.529Z,6.97
2023-03-22T16:37:44.130Z,8.38
2023-03-22T16:40:16.479Z,7.68
2023-03-22T16:42:43.717Z,8.38
2023-03-22T16:45:19.713Z,8.50
2023-03-22T16:47:47.458Z,9.35
2023-03-22T16:50:14.521Z,8.07
2023-03-22T16:52:41.613Z,9.48
2023-03-22T16:55:22.404Z,9.40
2023-03-22T16:57:50.078Z,10.13
2023-03-22T17:00:19.612Z,9.98
2023-03-22T17:02:49.184Z,10.23
2023-03-22T17:05:21.680Z,9.45
2023-03-22T17:07:50.217Z,10.55
2023-03-22T17:10:20.000Z,10.60
2023-03-22T17:12:49.786Z,10.75
2023-03-22T17:15:29.068Z,15.88
2023-03-22T17:20:23.606Z,14.63
2023-03-22T17:22:50.800Z,13.60
2023-03-22T17:25:21.681Z,15.43
2023-03-22T17:27:48.711Z,18.23
2023-03-22T17:30:16.034Z,17.67
2023-03-22T17:32:57.844Z,20.83
2023-03-22T17:35:30.648Z,21.45
2023-03-22T17:37:59.245Z,20.35
2023-03-22T17:40:33.112Z,21.75
2023-03-22T17:43:07.033Z,19.50
2023-03-22T17:46:00.998Z,17.90
2023-03-22T17:48:23.223Z,18.70
2023-03-22T17:50:50.679Z,19.33
2023-03-22T17:53:29.236Z,19.70
2023-03-22T17:56:43.863Z,19.15
2023-03-22T17:58:52.284Z,19.52
2023-03-22T18:01:21.612Z,17.83
2023-03-22T18:03:48.957Z,20.00
2023-03-22T18:06:16.430Z,20.13
2023-03-22T18:08:44.946Z,20.95
2023-03-22T18:11:15.284Z,23.10
2023-03-22T18:13:44.462Z,21.83
2023-03-22T18:16:11.901Z,21.30
2023-03-22T18:18:38.930Z,22.93
2023-03-22T18:21:15.740Z,27.43
2023-03-22T18:23:43.381Z,26.90
2023-03-22T18:26:27.340Z,21.37
2023-03-22T18:28:56.039Z,23.30
2023-03-22T18:31:23.293Z,26.27
2023-03-22T18:33:50.608Z,23.90
2023-03-22T18:36:18.020Z,25.40
2023-03-22T18:39:30.400Z,27.50
2023-03-22T18:41:45.987Z,23.13
2023-03-22T18:44:14.981Z,25.17
2023-03-22T18:46:43.730Z,26.67
2023-03-22T18:49:11.191Z,25.95
2023-03-22T18:54:11.066Z,28.43
2023-03-22T18:56:38.462Z,29.57
2023-03-22T18:59:06.350Z,30.73
2023-03-22T19:01:33.533Z,29.70
2023-03-22T19:04:00.634Z,24.37
2023-03-22T19:06:27.601Z,34.27
2023-03-22T19:08:54.915Z,29.77
2023-03-22T19:11:22.838Z,32.23
2023-03-22T19:16:33.308Z,32.10
2023-03-22T19:19:01.809Z,26.73
2023-03-22T19:21:32.349Z,27.75
2023-03-22T19:23:59.771Z,32.93
2023-03-22T19:26:27.964Z,31.17
2023-03-22T19:28:58.564Z,31.63
